Packwood, WA (98361)

11:13 AM PST on February 10, 2016 (GMT -0800)
nisqually park | | Change Station
CLOSE
Current Station
Personal Weather Station
Location: Ashford, WA
Elevation: 2021 ft
Nearby Weather Stations

Elev 2021 ft 46.74 °N, 121.93 °W | Updated 5 seconds ago

Overcast
Overcast
43.6 °F
Feels Like 44 °F
N
0.0
Wind Variable Wind from SE

Today
High -- | Low -- °F
--% Chance of Precip.
Yesterday
High -- | Low -- °F
Precip. -- in
Pressure 30.22 in
Visibility 4.0 miles
Clouds Overcast 4800 ft
Windchill 44 °F
Dew Point 42 °F
Humidity 94%
Rainfall 0.00 in
Snow Depth Not available.
7:18 AM 5:23 PM
Waxing Crescent, 6% visible
METAR KPLU 101855Z AUTO 00000KT 4SM -RA OVC048 08/08 A3022 RMK AO2
Pressure 30.22 in
Visibility 4.0 miles
Clouds Overcast 4800 ft
Windchill 44 °F
Dew Point 42 °F
Humidity 94%
Rainfall 0.00 in
Snow Depth Not available.
7:18 AM 5:23 PM
Waxing Crescent, 6% visible
METAR KPLU 101855Z AUTO 00000KT 4SM -RA OVC048 08/08 A3022 RMK AO2

10-Day Weather Forecast

Almanac

Astronomy

Feb. 10, 2016 Rise Set
Actual Time
Civil Twilight
Nautical Twilight
Astronomical Twilight
Moon
Length of Visible Light
Length of Day
Tomorrow will be .
, % of the Moon is Illuminated

Today's Extremes

State Highs State Lows

Community

WunderPhotos

Upload Photos

1,891,922 photos uploaded!

WunderBlog® & News

Nearby

Air Quality

  Air Quality AQ Index Pollutant
Not available.

Snow Depth

Station Depth Elevation

Earthquake Activity

City Distance Mag. Time & Date
Minimum magnitude displayed is 2.5.

Coastal Water Temperatures

Place Temperature

Stations

Nearby Weather Stations

Station Location Temp. Windchill Dew Point Humidity Wind Precip. Elev Updated Type
                   

Watches & Warnings

There are currently no watches in effect.